This is the latest recevied weather packets stored in our database for station/object KQ4JKJ. If no packets are shown the sender has not sent any weather packets the latest 10 day(s).
| Time | Temp. | Humidity | Pressure | Rain* | Wind** | Luminosity | Snow |
|---|---|---|---|---|---|---|---|
| 1777926001 | 24.44° C | 67% | 1010.1 hPa | 0 mm | - | 240 W/m² | - |
| 1777925699 | 24.44° C | 67% | 1010.1 hPa | 0 mm | - | 236 W/m² | - |
| 1777925396 | 25° C | 66% | 1010.3 hPa | 0 mm | - | 268 W/m² | - |
| 1777925093 | 24.44° C | 67% | 1010 hPa | 0 mm | - | 231 W/m² | - |
| 1777924789 | 24.44° C | 67% | 1010.2 hPa | 0 mm | - | 261 W/m² | - |
| 1777924485 | 24.44° C | 66% | 1010.4 hPa | 0 mm | - | 228 W/m² | - |
| 1777924182 | 25° C | 66% | 1010.1 hPa | 0 mm | - | 185 W/m² | - |
| 1777923878 | 25° C | 65% | 1010.2 hPa | 0 mm | - | 602 W/m² | - |
| 1777923574 | 24.44° C | 68% | 1010.4 hPa | 0 mm | - | 306 W/m² | - |
| 1777923272 | 24.44° C | 67% | 1010.5 hPa | 0 mm | - | 133 W/m² | - |
| 1777922970 | 23.89° C | 69% | 1010.7 hPa | 0 mm | - | 151 W/m² | - |
| 1777922667 | 23.89° C | 68% | 1010.7 hPa | 0 mm | - | 189 W/m² | - |
| 1777922366 | 24.44° C | 68% | 1010.9 hPa | 0 mm | - | 91 W/m² | - |
| 1777922064 | 25° C | 65% | 1011.1 hPa | 0 mm | - | 159 W/m² | - |
| 1777921759 | 24.44° C | 67% | 1010.8 hPa | 0 mm | - | 629 W/m² | - |
| 1777921455 | 24.44° C | 67% | 1011 hPa | 0 mm | - | 185 W/m² | - |
| 1777921151 | 25.56° C | 66% | 1010.9 hPa | 0 mm | - | 162 W/m² | - |
| 1777920849 | 25° C | 66% | 1011 hPa | 0 mm | - | 555 W/m² | - |
| 1777920544 | 25.56° C | 65% | 1011 hPa | 0 mm | - | 226 W/m² | - |
| 1777920240 | 25° C | 66% | 1011 hPa | 0 mm | - | 335 W/m² | - |
| 1777919936 | 24.44° C | 67% | 1011.3 hPa | 0 mm | - | 223 W/m² | - |
| 1777919634 | 23.89° C | 67% | 1011.2 hPa | 0 mm | - | 175 W/m² | - |
| 1777919332 | 24.44° C | 66% | 1011.3 hPa | 0 mm | - | 157 W/m² | - |
| 1777919029 | 24.44° C | 65% | 1011.6 hPa | 0 mm | - | 204 W/m² | - |
| 1777918725 | 24.44° C | 66% | 1011.3 hPa | 0 mm | - | 185 W/m² | - |
* Rain latest hour (hover to see other rain measurements)
** Current wind speed in m/s (hover to see current wind gust speed)